Time;durP1;ratioP1;P1;durP2;ratioP2;P2;SDS_P1;SDS_P2;PMS_P1;PMS_P2;Temp;Humidity;BMP_temperature;BMP_pressure;BME280_temperature;BME280_humidity;BME280_pressure;Samples;Min_cycle;Max_cycle;Signal;HPM_P1;HPM_P2
2021/10/15 00:06:24;;;;;;;;;;;4.50;99.90;;;;;;20999176;28;19962;-76
2021/10/15 00:16:25;;;;;;;;;;;4.60;99.90;;;;;;20998256;28;20386;-77
2021/10/15 00:26:26;;;;;;;;;;;4.60;99.90;;;;;;20998007;28;20074;-77
2021/10/15 00:36:26;;;;;;;;;;;4.30;99.90;;;;;;20997077;28;19927;-77
2021/10/15 00:46:27;;;;;;;;;;;4.40;99.90;;;;;;20996357;28;19991;-76
2021/10/15 00:56:28;;;;;;;;;;;4.40;99.90;;;;;;20995631;28;19947;-76
2021/10/15 01:06:30;;;;;;;;;;;4.30;99.90;;;;;;20995020;28;19924;-77
2021/10/15 01:16:32;;;;;;;;;;;4.20;99.90;;;;;;20993837;28;19916;-76
2021/10/15 01:26:33;;;;;;;;;;;4.20;99.90;;;;;;20994130;28;20431;-76
2021/10/15 01:36:33;;;;;;;;;;;4.30;99.90;;;;;;21000770;28;19916;-76
2021/10/15 01:46:34;;;;;;;;;;;4.30;99.90;;;;;;20992092;28;20387;-76
2021/10/15 01:56:37;;;;;;;;;;;4.20;99.90;;;;;;20991575;28;20436;-76
2021/10/15 02:06:38;;;;;;;;;;;4.10;99.90;;;;;;20991078;28;19961;-76
2021/10/15 02:16:39;;;;;;;;;;;3.90;99.90;;;;;;20990863;28;20298;-76
2021/10/15 02:26:42;;;;;;;;;;;3.60;99.90;;;;;;20990426;28;19912;-76
2021/10/15 02:36:43;;;;;;;;;;;3.50;99.90;;;;;;20997675;28;19917;-76
2021/10/15 02:46:44;;;;;;;;;;;3.30;99.90;;;;;;21005861;28;19919;-76
2021/10/15 02:56:45;;;;;;;;;;;3.40;99.90;;;;;;21005027;28;19916;-75
2021/10/15 03:06:45;;;;;;;;;;;3.50;99.90;;;;;;21004028;28;19924;-76
2021/10/15 03:16:46;;;;;;;;;;;3.40;99.90;;;;;;21003314;28;20036;-75
2021/10/15 03:26:47;;;;;;;;;;;3.20;99.90;;;;;;21002596;28;20378;-76
2021/10/15 03:36:47;;;;;;;;;;;3.20;99.90;;;;;;21006036;28;19924;-76
2021/10/15 03:46:49;;;;;;;;;;;3.00;99.90;;;;;;21000407;28;20294;-76
2021/10/15 03:56:49;;;;;;;;;;;3.10;99.90;;;;;;21000411;28;19917;-75
2021/10/15 04:06:50;;;;;;;;;;;3.00;99.90;;;;;;20999685;28;19923;-74
2021/10/15 04:16:51;;;;;;;;;;;3.00;99.90;;;;;;20998632;28;19962;-74
2021/10/15 04:26:51;;;;;;;;;;;3.10;99.90;;;;;;20998107;28;19913;-74
2021/10/15 04:36:52;;;;;;;;;;;3.10;99.90;;;;;;20997190;28;19923;-74
2021/10/15 04:46:53;;;;;;;;;;;3.00;99.90;;;;;;20996234;28;19913;-75
2021/10/15 04:56:54;;;;;;;;;;;2.90;99.90;;;;;;20995080;28;19917;-74
2021/10/15 05:06:57;;;;;;;;;;;2.80;99.90;;;;;;20994823;28;19916;-74
2021/10/15 05:16:59;;;;;;;;;;;2.70;99.90;;;;;;21001503;28;20286;-75
2021/10/15 05:26:59;;;;;;;;;;;2.90;99.90;;;;;;20992886;28;19912;-75
2021/10/15 05:37:00;;;;;;;;;;;3.00;99.90;;;;;;20992468;28;19923;-76
2021/10/15 05:47:04;;;;;;;;;;;3.00;99.90;;;;;;21001580;28;19952;-76
2021/10/15 06:09:13;;;;;;;;;;;3.10;99.90;;;;;;20987543;28;19923;-77
2021/10/15 06:17:46;;;;;;;;;;;3.10;99.90;;;;;;20988204;28;19917;-77
2021/10/15 06:27:47;;;;;;;;;;;3.10;99.90;;;;;;20988417;28;19923;-76
2021/10/15 06:37:47;;;;;;;;;;;3.10;99.90;;;;;;20989192;28;20018;-76
2021/10/15 06:47:48;;;;;;;;;;;3.30;99.90;;;;;;20989444;28;20295;-76
2021/10/15 06:57:49;;;;;;;;;;;3.20;99.90;;;;;;20988795;28;20405;-75
2021/10/15 07:07:50;;;;;;;;;;;3.30;99.90;;;;;;20988822;28;20370;-78
2021/10/15 07:17:51;;;;;;;;;;;3.50;99.90;;;;;;20988213;28;19916;-77
2021/10/15 07:27:51;;;;;;;;;;;3.70;99.90;;;;;;21000229;28;20007;-77
2021/10/15 07:37:52;;;;;;;;;;;3.80;99.90;;;;;;21001375;28;19985;-77
2021/10/15 07:47:53;;;;;;;;;;;4.10;99.90;;;;;;21000918;28;20287;-77
2021/10/15 07:57:53;;;;;;;;;;;4.50;99.90;;;;;;20999910;28;19916;-79
2021/10/15 08:07:54;;;;;;;;;;;4.50;99.90;;;;;;21003629;28;19916;-77
2021/10/15 08:17:55;;;;;;;;;;;4.60;99.90;;;;;;20998390;28;19921;-78
2021/10/15 08:27:57;;;;;;;;;;;5.20;99.90;;;;;;20998299;28;19913;-78
2021/10/15 08:37:57;;;;;;;;;;;6.50;99.90;;;;;;20997278;28;19928;-78
2021/10/15 08:47:59;;;;;;;;;;;6.40;99.90;;;;;;20996569;28;19912;-78
2021/10/15 08:58:00;;;;;;;;;;;7.00;99.90;;;;;;20995841;28;19963;-78
2021/10/15 09:08:01;;;;;;;;;;;7.70;99.90;;;;;;20994875;28;19916;-77
2021/10/15 09:18:16;;;;;;;;;;;9.40;99.90;;;;;;20994405;28;19917;-78
2021/10/15 09:28:21;;;;;;;;;;;10.80;99.90;;;;;;20993560;28;20302;-78
2021/10/15 09:38:26;;;;;;;;;;;12.30;99.90;;;;;;20993105;28;20371;-79
2021/10/15 09:48:27;;;;;;;;;;;11.60;99.90;;;;;;20992019;28;20112;-77
2021/10/15 09:58:28;;;;;;;;;;;12.00;99.90;;;;;;20999348;28;20275;-77
2021/10/15 10:08:28;;;;;;;;;;;13.40;99.90;;;;;;20991591;28;20007;-78
2021/10/15 10:18:30;;;;;;;;;;;14.60;99.90;;;;;;20990951;28;19917;-78
2021/10/15 10:28:31;;;;;;;;;;;15.70;99.90;;;;;;20990611;28;19919;-79
2021/10/15 10:38:32;;;;;;;;;;;15.80;99.90;;;;;;20990206;28;19917;-78
2021/10/15 10:48:33;;;;;;;;;;;16.90;99.90;;;;;;20989813;28;19919;-78
2021/10/15 10:58:35;;;;;;;;;;;17.30;99.90;;;;;;20997797;28;19952;-77
2021/10/15 11:08:36;;;;;;;;;;;15.90;99.90;;;;;;21004133;28;20008;-77
2021/10/15 11:18:37;;;;;;;;;;;16.90;99.90;;;;;;21002921;28;19959;-77
2021/10/15 11:28:37;;;;;;;;;;;16.70;99.90;;;;;;21002511;28;19917;-79
2021/10/15 11:38:38;;;;;;;;;;;16.40;99.90;;;;;;21001582;28;20409;-78
2021/10/15 11:48:41;;;;;;;;;;;16.50;99.90;;;;;;21001350;28;20408;-78
2021/10/15 11:58:45;;;;;;;;;;;17.10;99.90;;;;;;20979581;28;19940;-79
2021/10/15 12:08:47;;;;;;;;;;;18.00;99.90;;;;;;20980604;28;20413;-79
2021/10/15 12:18:58;;;;;;;;;;;17.20;99.90;;;;;;20981428;28;20138;-78
2021/10/15 12:28:59;;;;;;;;;;;17.00;99.90;;;;;;20980190;28;19927;-79
2021/10/15 12:39:15;;;;;;;;;;;16.50;99.90;;;;;;20980703;28;19920;-80
2021/10/15 12:49:16;;;;;;;;;;;17.30;99.90;;;;;;20981024;28;19954;-80
2021/10/15 12:59:18;;;;;;;;;;;17.50;99.90;;;;;;20983501;28;20631;-79
2021/10/15 13:09:18;;;;;;;;;;;17.00;99.90;;;;;;21031840;28;19920;-79
2021/10/15 13:19:19;;;;;;;;;;;17.10;99.90;;;;;;21045130;28;19927;-77
2021/10/15 13:29:20;;;;;;;;;;;17.90;99.90;;;;;;21043941;28;20001;-77
2021/10/15 13:39:22;;;;;;;;;;;18.20;99.90;;;;;;21044563;28;20220;-78
2021/10/15 14:00:05;;;;;;;;;;;17.60;99.90;;;;;;21025322;28;19931;-78
2021/10/15 14:10:14;;;;;;;;;;;17.10;99.90;;;;;;21033213;28;20320;-78
2021/10/15 14:20:15;;;;;;;;;;;17.50;99.90;;;;;;21039843;28;19927;-79
2021/10/15 14:30:21;;;;;;;;;;;17.10;99.90;;;;;;21044769;28;19924;-77
2021/10/15 14:40:21;;;;;;;;;;;16.50;99.90;;;;;;20975352;28;20276;-76
2021/10/15 14:50:22;;;;;;;;;;;16.10;99.90;;;;;;21056061;28;19916;-78
2021/10/15 15:00:23;;;;;;;;;;;15.80;99.90;;;;;;21056473;28;19920;-76
2021/10/15 15:10:24;;;;;;;;;;;15.70;99.90;;;;;;21052280;28;19916;-77
2021/10/15 15:20:24;;;;;;;;;;;15.40;99.90;;;;;;21040354;28;19920;-78
2021/10/15 15:30:25;;;;;;;;;;;15.60;99.90;;;;;;21049406;28;19915;-78
2021/10/15 15:40:26;;;;;;;;;;;15.80;99.90;;;;;;21040785;28;19926;-78
2021/10/15 15:50:27;;;;;;;;;;;15.50;99.90;;;;;;21044146;28;20379;-77
2021/10/15 16:00:28;;;;;;;;;;;15.40;99.90;;;;;;21018321;28;19951;-79
2021/10/15 16:10:28;;;;;;;;;;;15.10;99.90;;;;;;20981888;28;19924;-78
2021/10/15 16:20:29;;;;;;;;;;;14.40;99.90;;;;;;20981295;28;19920;-78
2021/10/15 16:30:32;;;;;;;;;;;13.80;99.90;;;;;;20977642;28;19928;-77
2021/10/15 16:40:32;;;;;;;;;;;13.40;99.90;;;;;;20976459;28;19921;-78
2021/10/15 16:50:33;;;;;;;;;;;13.20;99.90;;;;;;20974104;28;20374;-78
2021/10/15 17:00:37;;;;;;;;;;;12.60;99.90;;;;;;20975280;28;19921;-78
2021/10/15 17:10:37;;;;;;;;;;;12.10;99.90;;;;;;20976650;28;19920;-78
2021/10/15 17:20:38;;;;;;;;;;;11.60;99.90;;;;;;20974385;28;20445;-78
2021/10/15 17:30:39;;;;;;;;;;;11.10;99.90;;;;;;20977819;28;20003;-78
2021/10/15 17:40:40;;;;;;;;;;;10.80;99.90;;;;;;20979547;28;19951;-79
2021/10/15 17:50:40;;;;;;;;;;;10.60;99.90;;;;;;20974186;28;20641;-78
2021/10/15 18:00:41;;;;;;;;;;;10.40;99.90;;;;;;20977705;28;19939;-79
2021/10/15 18:10:42;;;;;;;;;;;10.20;99.90;;;;;;20975800;28;20375;-79
2021/10/15 18:20:43;;;;;;;;;;;9.70;99.90;;;;;;20972000;28;19970;-78
2021/10/15 18:30:43;;;;;;;;;;;9.90;99.90;;;;;;20969519;28;20007;-78
2021/10/15 18:40:44;;;;;;;;;;;9.60;99.90;;;;;;20973699;28;20409;-79
2021/10/15 18:50:45;;;;;;;;;;;9.30;99.90;;;;;;20972379;28;19916;-79
2021/10/15 19:00:45;;;;;;;;;;;8.80;99.90;;;;;;20991131;22;20650;-77
2021/10/15 19:10:46;;;;;;;;;;;8.60;99.90;;;;;;21057344;28;19920;-77
2021/10/15 19:20:47;;;;;;;;;;;8.60;99.90;;;;;;21069223;28;20361;-76
2021/10/15 19:30:48;;;;;;;;;;;8.40;99.90;;;;;;21072404;28;19999;-77
2021/10/15 19:40:49;;;;;;;;;;;8.10;99.90;;;;;;21054405;28;19928;-78
2021/10/15 19:50:50;;;;;;;;;;;7.90;99.90;;;;;;21057199;28;19916;-77
2021/10/15 20:00:51;;;;;;;;;;;7.70;99.90;;;;;;20996261;28;20437;-77
2021/10/15 20:10:52;;;;;;;;;;;7.80;99.90;;;;;;20993262;28;19923;-78
2021/10/15 20:20:52;;;;;;;;;;;7.50;99.90;;;;;;20995523;28;19931;-78
2021/10/15 20:30:53;;;;;;;;;;;7.40;99.90;;;;;;20976765;28;19916;-79
2021/10/15 20:40:54;;;;;;;;;;;7.20;99.90;;;;;;20996747;28;20014;-77
2021/10/15 20:50:55;;;;;;;;;;;7.10;99.90;;;;;;21073712;28;19970;-76
2021/10/15 21:00:55;;;;;;;;;;;6.80;99.90;;;;;;21020322;28;19919;-78
2021/10/15 21:10:56;;;;;;;;;;;6.50;99.90;;;;;;20978111;28;19917;-78
2021/10/15 21:20:57;;;;;;;;;;;6.70;99.90;;;;;;20996133;28;19920;-78
2021/10/15 21:30:58;;;;;;;;;;;6.50;99.90;;;;;;20978513;28;19916;-77
2021/10/15 21:40:58;;;;;;;;;;;6.30;99.90;;;;;;20976774;28;19926;-77
2021/10/15 21:50:59;;;;;;;;;;;6.30;99.90;;;;;;21073704;28;20310;-77
2021/10/15 22:01:00;;;;;;;;;;;6.00;99.90;;;;;;21075123;28;20435;-78
2021/10/15 22:11:00;;;;;;;;;;;6.00;99.90;;;;;;21126673;28;19916;-76
2021/10/15 22:21:01;;;;;;;;;;;5.80;99.90;;;;;;20970718;28;19924;-77
2021/10/15 22:31:02;;;;;;;;;;;5.80;99.90;;;;;;21030607;28;19923;-76
2021/10/15 22:41:03;;;;;;;;;;;5.60;99.90;;;;;;21145820;28;19920;-77
2021/10/15 22:51:03;;;;;;;;;;;5.40;99.90;;;;;;21053203;28;19987;-76
2021/10/15 23:01:04;;;;;;;;;;;5.00;99.90;;;;;;21085995;28;19927;-78
2021/10/15 23:11:06;;;;;;;;;;;5.00;99.90;;;;;;21141785;28;19915;-76
2021/10/15 23:21:07;;;;;;;;;;;5.00;99.90;;;;;;21167789;28;20353;-78
2021/10/15 23:31:07;;;;;;;;;;;5.10;99.90;;;;;;21170540;28;19916;-76
2021/10/15 23:41:08;;;;;;;;;;;5.00;99.90;;;;;;21080183;28;19924;-78
2021/10/15 23:51:09;;;;;;;;;;;4.60;99.90;;;;;;21007582;28;19916;-78
